Terminal Aerodrome Forecast
Issued by NWS Sterling, VA

Current Version | Previous Version | Text Only | Print | Product List | Glossary Off
Versions: 1 2 3 4 5 6 7 8 9 10 11 12 13 14 15 16

126
FTUS41 KLWX 211430 AAA
TAFMRB
TAF AMD
KMRB 211430Z 2114/2212 33004KT P6SM FEW150 FEW250
     FM220300 VRB03KT P6SM BKN110 BKN130=

USA.gov is the U.S. government's official web portal to all federal, state and local government web resources and services.